sensor_id;sensor_type;location;lat;lon;timestamp;temperature;humidity
38458;DHT22;24239;48.058;10.486;2023-12-20T00:01:12;4.70;99.90
38458;DHT22;24239;48.058;10.486;2023-12-20T00:03:58;4.70;99.90
38458;DHT22;24239;48.058;10.486;2023-12-20T00:06:44;4.70;99.90
38458;DHT22;24239;48.058;10.486;2023-12-20T00:09:29;4.70;99.90
38458;DHT22;24239;48.058;10.486;2023-12-20T00:12:15;4.60;99.90
38458;DHT22;24239;48.058;10.486;2023-12-20T00:15:01;4.60;99.90
38458;DHT22;24239;48.058;10.486;2023-12-20T00:17:47;4.70;99.90
38458;DHT22;24239;48.058;10.486;2023-12-20T00:20:33;4.60;99.90
38458;DHT22;24239;48.058;10.486;2023-12-20T00:23:21;4.60;99.90
38458;DHT22;24239;48.058;10.486;2023-12-20T00:26:11;4.60;99.90
38458;DHT22;24239;48.058;10.486;2023-12-20T00:28:57;4.60;99.90
38458;DHT22;24239;48.058;10.486;2023-12-20T00:31:43;4.60;99.90
38458;DHT22;24239;48.058;10.486;2023-12-20T00:34:28;4.50;99.90
38458;DHT22;24239;48.058;10.486;2023-12-20T00:37:14;4.50;99.90
38458;DHT22;24239;48.058;10.486;2023-12-20T00:40:00;4.60;99.90
38458;DHT22;24239;48.058;10.486;2023-12-20T00:42:46;4.50;99.90
38458;DHT22;24239;48.058;10.486;2023-12-20T00:45:32;4.50;99.90
38458;DHT22;24239;48.058;10.486;2023-12-20T00:48:18;4.50;99.90
38458;DHT22;24239;48.058;10.486;2023-12-20T00:51:04;4.50;99.90
38458;DHT22;24239;48.058;10.486;2023-12-20T00:53:50;4.50;99.90
38458;DHT22;24239;48.058;10.486;2023-12-20T00:56:40;4.60;99.90
38458;DHT22;24239;48.058;10.486;2023-12-20T00:59:26;4.70;99.90
38458;DHT22;24239;48.058;10.486;2023-12-20T01:02:11;4.60;99.90
38458;DHT22;24239;48.058;10.486;2023-12-20T01:04:58;4.70;99.90
38458;DHT22;24239;48.058;10.486;2023-12-20T01:07:44;4.60;99.90
38458;DHT22;24239;48.058;10.486;2023-12-20T01:10:29;4.60;99.90
38458;DHT22;24239;48.058;10.486;2023-12-20T01:13:15;4.60;99.90
38458;DHT22;24239;48.058;10.486;2023-12-20T01:16:01;4.60;99.90
38458;DHT22;24239;48.058;10.486;2023-12-20T01:18:50;4.60;99.90
38458;DHT22;24239;48.058;10.486;2023-12-20T01:21:36;4.50;99.90
38458;DHT22;24239;48.058;10.486;2023-12-20T01:24:22;4.70;99.90
38458;DHT22;24239;48.058;10.486;2023-12-20T01:27:08;4.50;99.90
38458;DHT22;24239;48.058;10.486;2023-12-20T01:29:54;4.60;99.90
38458;DHT22;24239;48.058;10.486;2023-12-20T01:32:40;4.70;99.90
38458;DHT22;24239;48.058;10.486;2023-12-20T01:35:25;4.70;99.90
38458;DHT22;24239;48.058;10.486;2023-12-20T01:38:11;4.70;99.90
38458;DHT22;24239;48.058;10.486;2023-12-20T01:41:02;4.80;99.90
38458;DHT22;24239;48.058;10.486;2023-12-20T01:43:47;4.70;99.90
38458;DHT22;24239;48.058;10.486;2023-12-20T01:46:33;4.70;99.90
38458;DHT22;24239;48.058;10.486;2023-12-20T01:49:19;4.70;99.90
38458;DHT22;24239;48.058;10.486;2023-12-20T01:52:06;4.70;99.90
38458;DHT22;24239;48.058;10.486;2023-12-20T01:54:53;4.60;99.90
38458;DHT22;24239;48.058;10.486;2023-12-20T01:57:40;4.70;99.90
38458;DHT22;24239;48.058;10.486;2023-12-20T02:00:27;4.60;99.90
38458;DHT22;24239;48.058;10.486;2023-12-20T02:03:13;4.70;99.90
38458;DHT22;24239;48.058;10.486;2023-12-20T02:05:59;4.60;99.90
38458;DHT22;24239;48.058;10.486;2023-12-20T02:08:45;4.60;99.90
38458;DHT22;24239;48.058;10.486;2023-12-20T02:11:31;4.60;99.90
38458;DHT22;24239;48.058;10.486;2023-12-20T02:14:17;4.50;99.90
38458;DHT22;24239;48.058;10.486;2023-12-20T02:17:03;4.50;99.90
38458;DHT22;24239;48.058;10.486;2023-12-20T02:19:49;4.50;99.90
38458;DHT22;24239;48.058;10.486;2023-12-20T02:22:35;4.50;99.90
38458;DHT22;24239;48.058;10.486;2023-12-20T02:25:21;4.50;99.90
38458;DHT22;24239;48.058;10.486;2023-12-20T02:28:07;4.50;99.90
38458;DHT22;24239;48.058;10.486;2023-12-20T02:30:53;4.40;99.90
38458;DHT22;24239;48.058;10.486;2023-12-20T02:33:39;4.50;99.90
38458;DHT22;24239;48.058;10.486;2023-12-20T02:36:25;4.50;99.90
38458;DHT22;24239;48.058;10.486;2023-12-20T02:39:11;4.50;99.90
38458;DHT22;24239;48.058;10.486;2023-12-20T02:41:57;4.50;99.90
38458;DHT22;24239;48.058;10.486;2023-12-20T02:44:45;4.60;99.90
38458;DHT22;24239;48.058;10.486;2023-12-20T02:47:31;4.60;99.90
38458;DHT22;24239;48.058;10.486;2023-12-20T02:50:17;4.60;99.90
38458;DHT22;24239;48.058;10.486;2023-12-20T02:53:03;4.60;99.90
38458;DHT22;24239;48.058;10.486;2023-12-20T02:55:48;4.70;99.90
38458;DHT22;24239;48.058;10.486;2023-12-20T02:58:35;4.50;99.90
38458;DHT22;24239;48.058;10.486;2023-12-20T03:01:20;4.50;99.90
38458;DHT22;24239;48.058;10.486;2023-12-20T03:04:06;4.40;99.90
38458;DHT22;24239;48.058;10.486;2023-12-20T03:06:52;4.30;99.90
38458;DHT22;24239;48.058;10.486;2023-12-20T03:09:40;4.40;99.90
38458;DHT22;24239;48.058;10.486;2023-12-20T03:12:26;4.20;99.90
38458;DHT22;24239;48.058;10.486;2023-12-20T03:15:12;4.30;99.90
38458;DHT22;24239;48.058;10.486;2023-12-20T03:17:58;4.20;99.90
38458;DHT22;24239;48.058;10.486;2023-12-20T03:20:45;4.20;99.90
38458;DHT22;24239;48.058;10.486;2023-12-20T03:23:33;4.20;99.90
38458;DHT22;24239;48.058;10.486;2023-12-20T03:26:19;4.10;99.90
38458;DHT22;24239;48.058;10.486;2023-12-20T03:29:05;4.10;99.90
38458;DHT22;24239;48.058;10.486;2023-12-20T03:31:50;4.10;99.90
38458;DHT22;24239;48.058;10.486;2023-12-20T03:34:36;4.20;99.90
38458;DHT22;24239;48.058;10.486;2023-12-20T03:37:25;3.90;99.90
38458;DHT22;24239;48.058;10.486;2023-12-20T03:40:11;4.00;99.90
38458;DHT22;24239;48.058;10.486;2023-12-20T03:42:57;4.00;99.90
38458;DHT22;24239;48.058;10.486;2023-12-20T03:45:43;4.00;99.90
38458;DHT22;24239;48.058;10.486;2023-12-20T03:48:29;4.00;99.90
38458;DHT22;24239;48.058;10.486;2023-12-20T03:51:15;3.90;99.90
38458;DHT22;24239;48.058;10.486;2023-12-20T03:54:04;3.90;99.90
38458;DHT22;24239;48.058;10.486;2023-12-20T03:56:50;3.80;99.90
38458;DHT22;24239;48.058;10.486;2023-12-20T03:59:36;3.80;99.90
38458;DHT22;24239;48.058;10.486;2023-12-20T04:02:22;3.70;99.90
38458;DHT22;24239;48.058;10.486;2023-12-20T04:05:09;3.80;99.90
38458;DHT22;24239;48.058;10.486;2023-12-20T04:07:59;3.80;99.90
38458;DHT22;24239;48.058;10.486;2023-12-20T04:10:45;3.70;99.90
38458;DHT22;24239;48.058;10.486;2023-12-20T04:13:31;3.70;99.90
38458;DHT22;24239;48.058;10.486;2023-12-20T04:16:17;3.80;99.90
38458;DHT22;24239;48.058;10.486;2023-12-20T04:19:03;3.80;99.90
38458;DHT22;24239;48.058;10.486;2023-12-20T04:21:49;3.80;99.90
38458;DHT22;24239;48.058;10.486;2023-12-20T04:24:35;3.80;99.90
38458;DHT22;24239;48.058;10.486;2023-12-20T04:27:21;3.80;99.90
38458;DHT22;24239;48.058;10.486;2023-12-20T04:30:07;3.80;99.90
38458;DHT22;24239;48.058;10.486;2023-12-20T04:32:55;3.80;99.90
38458;DHT22;24239;48.058;10.486;2023-12-20T04:35:44;3.80;99.90
38458;DHT22;24239;48.058;10.486;2023-12-20T04:38:31;3.70;99.90
38458;DHT22;24239;48.058;10.486;2023-12-20T04:41:17;3.70;99.90
38458;DHT22;24239;48.058;10.486;2023-12-20T04:44:04;3.70;99.90
38458;DHT22;24239;48.058;10.486;2023-12-20T04:46:50;3.70;99.90
38458;DHT22;24239;48.058;10.486;2023-12-20T04:49:36;3.70;99.90
38458;DHT22;24239;48.058;10.486;2023-12-20T04:52:22;3.70;99.90
38458;DHT22;24239;48.058;10.486;2023-12-20T04:55:08;3.70;99.90
38458;DHT22;24239;48.058;10.486;2023-12-20T04:57:54;3.70;99.90
38458;DHT22;24239;48.058;10.486;2023-12-20T05:00:40;3.70;99.90
38458;DHT22;24239;48.058;10.486;2023-12-20T05:03:26;3.80;99.90
38458;DHT22;24239;48.058;10.486;2023-12-20T05:06:12;3.70;99.90
38458;DHT22;24239;48.058;10.486;2023-12-20T05:08:58;3.60;99.90
38458;DHT22;24239;48.058;10.486;2023-12-20T05:11:46;3.60;99.90
38458;DHT22;24239;48.058;10.486;2023-12-20T05:14:32;3.70;99.90
38458;DHT22;24239;48.058;10.486;2023-12-20T05:17:18;3.60;99.90
38458;DHT22;24239;48.058;10.486;2023-12-20T05:20:06;3.60;99.90
38458;DHT22;24239;48.058;10.486;2023-12-20T05:22:54;3.60;99.90
38458;DHT22;24239;48.058;10.486;2023-12-20T05:25:43;3.60;99.90
38458;DHT22;24239;48.058;10.486;2023-12-20T05:28:29;3.60;99.90
38458;DHT22;24239;48.058;10.486;2023-12-20T05:31:15;3.50;99.90
38458;DHT22;24239;48.058;10.486;2023-12-20T05:34:01;3.50;99.90
38458;DHT22;24239;48.058;10.486;2023-12-20T05:36:50;3.40;99.90
38458;DHT22;24239;48.058;10.486;2023-12-20T05:39:36;3.50;99.90
38458;DHT22;24239;48.058;10.486;2023-12-20T05:45:24;3.40;99.90
38458;DHT22;24239;48.058;10.486;2023-12-20T05:51:23;3.50;99.90
38458;DHT22;24239;48.058;10.486;2023-12-20T05:54:09;3.40;99.90
38458;DHT22;24239;48.058;10.486;2023-12-20T05:56:55;3.40;99.90
38458;DHT22;24239;48.058;10.486;2023-12-20T05:59:41;3.40;99.90
38458;DHT22;24239;48.058;10.486;2023-12-20T06:02:26;3.40;99.90
38458;DHT22;24239;48.058;10.486;2023-12-20T06:05:12;3.30;99.90
38458;DHT22;24239;48.058;10.486;2023-12-20T06:07:58;3.40;99.90
38458;DHT22;24239;48.058;10.486;2023-12-20T06:10:48;3.40;99.90
38458;DHT22;24239;48.058;10.486;2023-12-20T06:13:34;3.30;99.90
38458;DHT22;24239;48.058;10.486;2023-12-20T06:16:21;3.40;99.90
38458;DHT22;24239;48.058;10.486;2023-12-20T06:19:07;3.40;99.90
38458;DHT22;24239;48.058;10.486;2023-12-20T06:21:53;3.30;99.90
38458;DHT22;24239;48.058;10.486;2023-12-20T06:24:38;3.20;99.90
38458;DHT22;24239;48.058;10.486;2023-12-20T06:27:24;3.40;99.90
38458;DHT22;24239;48.058;10.486;2023-12-20T06:30:10;3.30;99.90
38458;DHT22;24239;48.058;10.486;2023-12-20T06:32:57;3.30;99.90
38458;DHT22;24239;48.058;10.486;2023-12-20T06:35:44;3.30;99.90
38458;DHT22;24239;48.058;10.486;2023-12-20T06:38:33;3.20;99.90
38458;DHT22;24239;48.058;10.486;2023-12-20T06:41:19;3.30;99.90
38458;DHT22;24239;48.058;10.486;2023-12-20T06:44:05;3.20;99.90
38458;DHT22;24239;48.058;10.486;2023-12-20T06:46:51;3.30;99.90
38458;DHT22;24239;48.058;10.486;2023-12-20T06:49:37;3.10;99.90
38458;DHT22;24239;48.058;10.486;2023-12-20T06:52:23;3.10;99.90
38458;DHT22;24239;48.058;10.486;2023-12-20T06:55:09;3.20;99.90
38458;DHT22;24239;48.058;10.486;2023-12-20T06:57:55;3.20;99.90
38458;DHT22;24239;48.058;10.486;2023-12-20T07:00:41;3.20;99.90
38458;DHT22;24239;48.058;10.486;2023-12-20T07:03:26;3.20;99.90
38458;DHT22;24239;48.058;10.486;2023-12-20T07:06:12;3.10;99.90
38458;DHT22;24239;48.058;10.486;2023-12-20T07:08:59;3.20;99.90
38458;DHT22;24239;48.058;10.486;2023-12-20T07:11:45;3.10;99.90
38458;DHT22;24239;48.058;10.486;2023-12-20T07:14:31;3.00;99.90
38458;DHT22;24239;48.058;10.486;2023-12-20T07:17:20;3.00;99.90
38458;DHT22;24239;48.058;10.486;2023-12-20T07:20:07;3.10;99.90
38458;DHT22;24239;48.058;10.486;2023-12-20T07:22:56;3.10;99.90
38458;DHT22;24239;48.058;10.486;2023-12-20T07:25:42;3.10;99.90
38458;DHT22;24239;48.058;10.486;2023-12-20T07:28:28;3.20;99.90
38458;DHT22;24239;48.058;10.486;2023-12-20T07:31:15;3.30;99.90
38458;DHT22;24239;48.058;10.486;2023-12-20T07:34:03;3.20;99.90
38458;DHT22;24239;48.058;10.486;2023-12-20T07:36:52;3.20;99.90
38458;DHT22;24239;48.058;10.486;2023-12-20T07:39:39;3.30;99.90
38458;DHT22;24239;48.058;10.486;2023-12-20T07:42:25;3.30;99.90
38458;DHT22;24239;48.058;10.486;2023-12-20T07:45:11;3.30;99.90
38458;DHT22;24239;48.058;10.486;2023-12-20T07:47:57;3.40;99.90
38458;DHT22;24239;48.058;10.486;2023-12-20T07:50:43;3.40;99.90
38458;DHT22;24239;48.058;10.486;2023-12-20T07:53:29;3.50;99.90
38458;DHT22;24239;48.058;10.486;2023-12-20T07:59:01;3.50;99.90
38458;DHT22;24239;48.058;10.486;2023-12-20T08:01:47;3.50;99.90
38458;DHT22;24239;48.058;10.486;2023-12-20T08:04:33;3.60;99.90
38458;DHT22;24239;48.058;10.486;2023-12-20T08:07:18;3.50;99.90
38458;DHT22;24239;48.058;10.486;2023-12-20T08:10:05;3.60;99.90
38458;DHT22;24239;48.058;10.486;2023-12-20T08:12:51;3.50;99.90
38458;DHT22;24239;48.058;10.486;2023-12-20T08:15:37;3.70;99.90
38458;DHT22;24239;48.058;10.486;2023-12-20T08:18:23;3.70;99.90
38458;DHT22;24239;48.058;10.486;2023-12-20T08:21:12;3.70;99.90
38458;DHT22;24239;48.058;10.486;2023-12-20T08:27:26;3.80;99.90
38458;DHT22;24239;48.058;10.486;2023-12-20T08:30:12;3.80;99.90
38458;DHT22;24239;48.058;10.486;2023-12-20T08:33:08;3.80;99.90
38458;DHT22;24239;48.058;10.486;2023-12-20T08:35:58;3.80;99.90
38458;DHT22;24239;48.058;10.486;2023-12-20T08:38:44;3.90;99.90
38458;DHT22;24239;48.058;10.486;2023-12-20T08:41:42;4.00;99.90
38458;DHT22;24239;48.058;10.486;2023-12-20T08:44:28;4.00;99.90
38458;DHT22;24239;48.058;10.486;2023-12-20T08:47:14;3.90;99.90
38458;DHT22;24239;48.058;10.486;2023-12-20T08:50:05;3.90;99.90
38458;DHT22;24239;48.058;10.486;2023-12-20T08:52:51;4.00;99.90
38458;DHT22;24239;48.058;10.486;2023-12-20T08:55:41;4.00;99.90
38458;DHT22;24239;48.058;10.486;2023-12-20T08:58:42;4.00;99.90
38458;DHT22;24239;48.058;10.486;2023-12-20T09:01:28;4.10;99.90
38458;DHT22;24239;48.058;10.486;2023-12-20T09:04:17;4.00;99.90
38458;DHT22;24239;48.058;10.486;2023-12-20T09:07:03;4.10;99.90
38458;DHT22;24239;48.058;10.486;2023-12-20T09:09:49;4.10;99.90
38458;DHT22;24239;48.058;10.486;2023-12-20T09:12:35;4.20;99.90
38458;DHT22;24239;48.058;10.486;2023-12-20T09:15:24;4.20;99.90
38458;DHT22;24239;48.058;10.486;2023-12-20T09:18:11;4.20;99.90
38458;DHT22;24239;48.058;10.486;2023-12-20T09:20:57;4.30;99.90
38458;DHT22;24239;48.058;10.486;2023-12-20T09:23:45;4.30;99.90
38458;DHT22;24239;48.058;10.486;2023-12-20T09:26:31;4.30;99.90
38458;DHT22;24239;48.058;10.486;2023-12-20T09:29:17;4.40;99.90
38458;DHT22;24239;48.058;10.486;2023-12-20T09:32:04;4.40;99.90
38458;DHT22;24239;48.058;10.486;2023-12-20T09:34:56;4.40;99.90
38458;DHT22;24239;48.058;10.486;2023-12-20T09:37:42;4.40;99.90
38458;DHT22;24239;48.058;10.486;2023-12-20T09:40:30;4.50;99.90
38458;DHT22;24239;48.058;10.486;2023-12-20T09:43:20;4.60;99.90
38458;DHT22;24239;48.058;10.486;2023-12-20T09:46:09;4.60;99.90
38458;DHT22;24239;48.058;10.486;2023-12-20T09:48:58;4.60;99.90
38458;DHT22;24239;48.058;10.486;2023-12-20T09:51:45;4.70;99.90
38458;DHT22;24239;48.058;10.486;2023-12-20T09:54:32;4.60;99.90
38458;DHT22;24239;48.058;10.486;2023-12-20T09:57:18;4.60;99.90
38458;DHT22;24239;48.058;10.486;2023-12-20T10:00:04;4.60;99.90
38458;DHT22;24239;48.058;10.486;2023-12-20T10:02:59;4.60;99.90
38458;DHT22;24239;48.058;10.486;2023-12-20T10:05:45;4.70;99.90
38458;DHT22;24239;48.058;10.486;2023-12-20T10:08:32;4.80;99.90
38458;DHT22;24239;48.058;10.486;2023-12-20T10:11:18;4.80;99.90
38458;DHT22;24239;48.058;10.486;2023-12-20T10:14:05;4.80;99.90
38458;DHT22;24239;48.058;10.486;2023-12-20T10:16:51;4.90;99.90
38458;DHT22;24239;48.058;10.486;2023-12-20T10:19:39;5.00;99.90
38458;DHT22;24239;48.058;10.486;2023-12-20T10:22:28;4.90;99.90
38458;DHT22;24239;48.058;10.486;2023-12-20T10:25:14;5.10;99.90
38458;DHT22;24239;48.058;10.486;2023-12-20T10:30:55;5.10;99.90
38458;DHT22;24239;48.058;10.486;2023-12-20T10:33:46;5.10;99.90
38458;DHT22;24239;48.058;10.486;2023-12-20T10:36:33;5.10;99.90
38458;DHT22;24239;48.058;10.486;2023-12-20T10:39:21;5.20;99.90
38458;DHT22;24239;48.058;10.486;2023-12-20T10:42:11;5.40;99.90
38458;DHT22;24239;48.058;10.486;2023-12-20T10:44:58;5.30;99.90
38458;DHT22;24239;48.058;10.486;2023-12-20T10:47:47;5.50;99.90
38458;DHT22;24239;48.058;10.486;2023-12-20T10:50:36;5.50;99.90
38458;DHT22;24239;48.058;10.486;2023-12-20T10:53:27;5.40;99.90
38458;DHT22;24239;48.058;10.486;2023-12-20T10:56:14;5.50;99.90
38458;DHT22;24239;48.058;10.486;2023-12-20T10:59:01;5.40;99.90
38458;DHT22;24239;48.058;10.486;2023-12-20T11:02:09;5.40;99.90
38458;DHT22;24239;48.058;10.486;2023-12-20T11:18:28;6.20;99.90
38458;DHT22;24239;48.058;10.486;2023-12-20T11:21:26;6.50;99.90
38458;DHT22;24239;48.058;10.486;2023-12-20T11:24:15;6.70;99.90
38458;DHT22;24239;48.058;10.486;2023-12-20T11:27:16;6.60;99.90
38458;DHT22;24239;48.058;10.486;2023-12-20T11:30:16;6.60;99.90
38458;DHT22;24239;48.058;10.486;2023-12-20T11:33:23;6.30;99.90
38458;DHT22;24239;48.058;10.486;2023-12-20T11:36:16;6.30;99.90
38458;DHT22;24239;48.058;10.486;2023-12-20T11:39:07;6.10;99.90
38458;DHT22;24239;48.058;10.486;2023-12-20T11:41:55;5.90;99.90
38458;DHT22;24239;48.058;10.486;2023-12-20T11:44:42;6.00;99.90
38458;DHT22;24239;48.058;10.486;2023-12-20T11:47:28;5.90;99.90
38458;DHT22;24239;48.058;10.486;2023-12-20T11:50:14;6.00;99.90
38458;DHT22;24239;48.058;10.486;2023-12-20T11:53:02;6.10;99.90
38458;DHT22;24239;48.058;10.486;2023-12-20T11:55:51;6.00;99.90
38458;DHT22;24239;48.058;10.486;2023-12-20T11:58:43;6.10;99.90
38458;DHT22;24239;48.058;10.486;2023-12-20T12:01:32;6.00;99.90
38458;DHT22;24239;48.058;10.486;2023-12-20T12:04:18;6.00;99.90
38458;DHT22;24239;48.058;10.486;2023-12-20T12:07:04;6.10;99.90
38458;DHT22;24239;48.058;10.486;2023-12-20T12:09:53;6.20;99.90
38458;DHT22;24239;48.058;10.486;2023-12-20T12:12:39;6.20;99.90
38458;DHT22;24239;48.058;10.486;2023-12-20T12:15:28;6.10;99.90
38458;DHT22;24239;48.058;10.486;2023-12-20T12:18:24;6.00;99.90
38458;DHT22;24239;48.058;10.486;2023-12-20T12:21:10;6.00;99.90
38458;DHT22;24239;48.058;10.486;2023-12-20T12:24:06;6.10;99.90
38458;DHT22;24239;48.058;10.486;2023-12-20T12:26:52;6.20;99.90
38458;DHT22;24239;48.058;10.486;2023-12-20T12:29:38;6.40;99.90
38458;DHT22;24239;48.058;10.486;2023-12-20T12:32:24;6.30;99.90
38458;DHT22;24239;48.058;10.486;2023-12-20T12:35:10;6.40;99.90
38458;DHT22;24239;48.058;10.486;2023-12-20T12:37:58;6.00;99.90
38458;DHT22;24239;48.058;10.486;2023-12-20T12:40:44;5.90;99.90
38458;DHT22;24239;48.058;10.486;2023-12-20T12:43:30;5.70;99.90
38458;DHT22;24239;48.058;10.486;2023-12-20T12:46:16;5.30;99.90
38458;DHT22;24239;48.058;10.486;2023-12-20T12:49:02;5.20;99.90
38458;DHT22;24239;48.058;10.486;2023-12-20T12:51:48;5.00;99.90
38458;DHT22;24239;48.058;10.486;2023-12-20T12:54:34;5.00;99.90
38458;DHT22;24239;48.058;10.486;2023-12-20T12:57:20;4.80;99.90
38458;DHT22;24239;48.058;10.486;2023-12-20T13:00:06;4.70;99.90
38458;DHT22;24239;48.058;10.486;2023-12-20T13:02:54;4.70;99.90
38458;DHT22;24239;48.058;10.486;2023-12-20T13:05:40;4.60;99.90
38458;DHT22;24239;48.058;10.486;2023-12-20T13:08:26;4.50;99.90
38458;DHT22;24239;48.058;10.486;2023-12-20T13:11:12;4.40;99.90
38458;DHT22;24239;48.058;10.486;2023-12-20T13:14:01;4.20;99.90
38458;DHT22;24239;48.058;10.486;2023-12-20T13:16:50;4.40;99.90
38458;DHT22;24239;48.058;10.486;2023-12-20T13:19:35;4.40;99.90
38458;DHT22;24239;48.058;10.486;2023-12-20T13:25:36;4.50;99.90
38458;DHT22;24239;48.058;10.486;2023-12-20T13:28:31;4.40;99.90
38458;DHT22;24239;48.058;10.486;2023-12-20T13:31:17;4.40;99.90
38458;DHT22;24239;48.058;10.486;2023-12-20T13:34:03;4.30;99.90
38458;DHT22;24239;48.058;10.486;2023-12-20T13:36:49;4.30;99.90
38458;DHT22;24239;48.058;10.486;2023-12-20T13:39:36;4.20;99.90
38458;DHT22;24239;48.058;10.486;2023-12-20T13:42:43;4.30;99.90
38458;DHT22;24239;48.058;10.486;2023-12-20T13:45:28;4.30;99.90
38458;DHT22;24239;48.058;10.486;2023-12-20T13:48:14;4.30;99.90
38458;DHT22;24239;48.058;10.486;2023-12-20T13:51:00;4.40;99.90
38458;DHT22;24239;48.058;10.486;2023-12-20T13:53:46;4.40;99.90
38458;DHT22;24239;48.058;10.486;2023-12-20T13:56:34;4.30;99.90
38458;DHT22;24239;48.058;10.486;2023-12-20T13:59:25;4.30;99.90
38458;DHT22;24239;48.058;10.486;2023-12-20T14:02:11;4.30;99.90
38458;DHT22;24239;48.058;10.486;2023-12-20T14:04:57;4.30;99.90
38458;DHT22;24239;48.058;10.486;2023-12-20T14:07:46;4.40;99.90
38458;DHT22;24239;48.058;10.486;2023-12-20T14:10:32;4.30;99.90
38458;DHT22;24239;48.058;10.486;2023-12-20T14:13:18;4.40;99.90
38458;DHT22;24239;48.058;10.486;2023-12-20T14:16:04;4.50;99.90
38458;DHT22;24239;48.058;10.486;2023-12-20T14:18:50;4.50;99.90
38458;DHT22;24239;48.058;10.486;2023-12-20T14:21:37;4.40;99.90
38458;DHT22;24239;48.058;10.486;2023-12-20T14:24:23;4.50;99.90
38458;DHT22;24239;48.058;10.486;2023-12-20T14:27:13;4.40;99.90
38458;DHT22;24239;48.058;10.486;2023-12-20T14:29:59;4.40;99.90
38458;DHT22;24239;48.058;10.486;2023-12-20T14:32:45;4.40;99.90
38458;DHT22;24239;48.058;10.486;2023-12-20T14:35:33;4.40;99.90
38458;DHT22;24239;48.058;10.486;2023-12-20T14:38:19;4.40;99.90
38458;DHT22;24239;48.058;10.486;2023-12-20T14:41:05;4.40;99.90
38458;DHT22;24239;48.058;10.486;2023-12-20T14:43:54;4.50;99.90
38458;DHT22;24239;48.058;10.486;2023-12-20T14:46:40;4.40;99.90
38458;DHT22;24239;48.058;10.486;2023-12-20T14:49:26;4.30;99.90
38458;DHT22;24239;48.058;10.486;2023-12-20T14:52:12;4.30;99.90
38458;DHT22;24239;48.058;10.486;2023-12-20T14:54:58;4.40;99.90
38458;DHT22;24239;48.058;10.486;2023-12-20T14:57:44;4.40;99.90
38458;DHT22;24239;48.058;10.486;2023-12-20T15:00:30;4.50;99.90
38458;DHT22;24239;48.058;10.486;2023-12-20T15:03:16;4.50;99.90
38458;DHT22;24239;48.058;10.486;2023-12-20T15:06:03;4.30;99.90
38458;DHT22;24239;48.058;10.486;2023-12-20T15:08:49;4.30;99.90
38458;DHT22;24239;48.058;10.486;2023-12-20T15:11:36;4.20;99.90
38458;DHT22;24239;48.058;10.486;2023-12-20T15:14:22;4.20;99.90
38458;DHT22;24239;48.058;10.486;2023-12-20T15:17:08;4.10;99.90
38458;DHT22;24239;48.058;10.486;2023-12-20T15:19:57;4.10;99.90
38458;DHT22;24239;48.058;10.486;2023-12-20T15:22:43;4.10;99.90
38458;DHT22;24239;48.058;10.486;2023-12-20T15:25:31;4.00;99.90
38458;DHT22;24239;48.058;10.486;2023-12-20T15:28:17;3.90;99.90
38458;DHT22;24239;48.058;10.486;2023-12-20T15:31:04;3.90;99.90
38458;DHT22;24239;48.058;10.486;2023-12-20T15:33:50;3.90;99.90
38458;DHT22;24239;48.058;10.486;2023-12-20T15:36:36;3.90;99.90
38458;DHT22;24239;48.058;10.486;2023-12-20T15:39:22;3.80;99.90
38458;DHT22;24239;48.058;10.486;2023-12-20T15:42:08;3.80;99.90
38458;DHT22;24239;48.058;10.486;2023-12-20T15:44:54;3.80;99.90
38458;DHT22;24239;48.058;10.486;2023-12-20T15:47:40;3.60;99.90
38458;DHT22;24239;48.058;10.486;2023-12-20T15:50:25;3.70;99.90
38458;DHT22;24239;48.058;10.486;2023-12-20T15:53:11;3.60;99.90
38458;DHT22;24239;48.058;10.486;2023-12-20T15:55:57;3.50;99.90
38458;DHT22;24239;48.058;10.486;2023-12-20T15:58:44;3.50;99.90
38458;DHT22;24239;48.058;10.486;2023-12-20T16:01:30;3.30;99.90
38458;DHT22;24239;48.058;10.486;2023-12-20T16:04:18;3.20;99.90
38458;DHT22;24239;48.058;10.486;2023-12-20T16:07:04;3.00;99.90
38458;DHT22;24239;48.058;10.486;2023-12-20T16:09:50;3.10;99.90
38458;DHT22;24239;48.058;10.486;2023-12-20T16:12:36;3.10;99.90
38458;DHT22;24239;48.058;10.486;2023-12-20T16:15:22;3.20;99.90
38458;DHT22;24239;48.058;10.486;2023-12-20T16:18:09;3.10;99.90
38458;DHT22;24239;48.058;10.486;2023-12-20T16:20:56;3.20;99.90
38458;DHT22;24239;48.058;10.486;2023-12-20T16:23:43;3.10;99.90
38458;DHT22;24239;48.058;10.486;2023-12-20T16:26:28;3.20;99.90
38458;DHT22;24239;48.058;10.486;2023-12-20T16:29:17;3.20;99.90
38458;DHT22;24239;48.058;10.486;2023-12-20T16:32:03;3.20;99.90
38458;DHT22;24239;48.058;10.486;2023-12-20T16:34:49;3.20;99.90
38458;DHT22;24239;48.058;10.486;2023-12-20T16:37:36;3.10;99.90
38458;DHT22;24239;48.058;10.486;2023-12-20T16:40:23;3.20;99.90
38458;DHT22;24239;48.058;10.486;2023-12-20T16:43:10;3.20;99.90
38458;DHT22;24239;48.058;10.486;2023-12-20T16:45:55;3.30;99.90
38458;DHT22;24239;48.058;10.486;2023-12-20T16:48:41;3.10;99.90
38458;DHT22;24239;48.058;10.486;2023-12-20T16:51:30;3.10;99.90
38458;DHT22;24239;48.058;10.486;2023-12-20T16:54:16;3.20;99.90
38458;DHT22;24239;48.058;10.486;2023-12-20T16:57:02;3.00;99.90
38458;DHT22;24239;48.058;10.486;2023-12-20T16:59:48;3.10;99.90
38458;DHT22;24239;48.058;10.486;2023-12-20T17:02:34;3.10;99.90
38458;DHT22;24239;48.058;10.486;2023-12-20T17:05:20;3.10;99.90
38458;DHT22;24239;48.058;10.486;2023-12-20T17:08:06;3.10;99.90
38458;DHT22;24239;48.058;10.486;2023-12-20T17:10:52;3.10;99.90
38458;DHT22;24239;48.058;10.486;2023-12-20T17:13:40;2.90;99.90
38458;DHT22;24239;48.058;10.486;2023-12-20T17:16:29;2.90;99.90
38458;DHT22;24239;48.058;10.486;2023-12-20T17:19:15;2.90;99.90
38458;DHT22;24239;48.058;10.486;2023-12-20T17:22:01;3.00;99.90
38458;DHT22;24239;48.058;10.486;2023-12-20T17:24:48;3.00;99.90
38458;DHT22;24239;48.058;10.486;2023-12-20T17:27:37;2.80;99.90
38458;DHT22;24239;48.058;10.486;2023-12-20T17:30:31;3.00;99.90
38458;DHT22;24239;48.058;10.486;2023-12-20T17:33:23;2.70;99.90
38458;DHT22;24239;48.058;10.486;2023-12-20T17:36:09;2.60;99.90
38458;DHT22;24239;48.058;10.486;2023-12-20T17:38:56;2.50;99.90
38458;DHT22;24239;48.058;10.486;2023-12-20T17:41:42;2.60;99.90
38458;DHT22;24239;48.058;10.486;2023-12-20T17:44:28;2.40;99.90
38458;DHT22;24239;48.058;10.486;2023-12-20T17:47:15;2.40;99.90
38458;DHT22;24239;48.058;10.486;2023-12-20T17:50:01;2.30;99.90
38458;DHT22;24239;48.058;10.486;2023-12-20T17:52:46;2.30;99.90
38458;DHT22;24239;48.058;10.486;2023-12-20T17:55:32;2.20;99.90
38458;DHT22;24239;48.058;10.486;2023-12-20T17:58:20;2.40;99.90
38458;DHT22;24239;48.058;10.486;2023-12-20T18:01:06;2.20;99.90
38458;DHT22;24239;48.058;10.486;2023-12-20T18:03:52;2.10;99.90
38458;DHT22;24239;48.058;10.486;2023-12-20T18:06:38;2.20;99.90